createdAt,value
2018-07-05T00:01:37.261Z,6.90
2018-07-05T00:04:16.890Z,7.20
2018-07-05T00:06:56.641Z,6.63
2018-07-05T00:09:36.384Z,7.33
2018-07-05T00:12:09.947Z,6.37
2018-07-05T00:14:49.569Z,6.70
2018-07-05T00:17:29.288Z,6.40
2018-07-05T00:20:08.995Z,6.60
2018-07-05T00:22:48.629Z,7.40
2018-07-05T00:25:28.376Z,7.20
2018-07-05T00:28:08.101Z,7.23
2018-07-05T00:30:47.852Z,7.37
2018-07-05T00:33:27.438Z,7.23
2018-07-05T00:36:07.220Z,7.73
2018-07-05T00:38:46.908Z,7.23
2018-07-05T00:41:26.526Z,7.00
2018-07-05T00:44:06.356Z,8.00
2018-07-05T00:46:46.048Z,7.70
2018-07-05T00:49:25.668Z,8.30
2018-07-05T00:52:05.427Z,8.30
2018-07-05T00:54:45.038Z,7.80
2018-07-05T00:57:24.664Z,9.13
2018-07-05T01:00:04.286Z,7.93
2018-07-05T01:02:43.974Z,8.37
2018-07-05T01:05:23.641Z,8.10
2018-07-05T01:08:03.286Z,8.87
2018-07-05T01:10:42.910Z,8.90
2018-07-05T01:13:22.593Z,9.93
2018-07-05T01:16:02.333Z,9.30
2018-07-05T01:18:42.014Z,9.00
2018-07-05T01:21:21.696Z,9.80
2018-07-05T01:24:01.485Z,8.53
2018-07-05T01:26:41.087Z,8.63
2018-07-05T01:29:20.785Z,7.30
2018-07-05T01:32:00.389Z,8.40
2018-07-05T01:34:40.194Z,7.50
2018-07-05T01:37:13.681Z,8.37
2018-07-05T01:39:53.267Z,8.17
2018-07-05T01:42:32.977Z,8.60
2018-07-05T01:45:12.913Z,7.87
2018-07-05T01:47:52.813Z,8.80
2018-07-05T01:50:32.678Z,9.27
2018-07-05T01:53:12.473Z,7.50
2018-07-05T01:55:52.103Z,8.10
2018-07-05T01:58:31.769Z,7.90
2018-07-05T02:01:11.414Z,8.10
2018-07-05T02:03:51.060Z,8.30
2018-07-05T02:06:30.793Z,8.13
2018-07-05T02:09:10.415Z,8.00
2018-07-05T02:11:49.964Z,8.13
2018-07-05T02:14:29.817Z,8.73
2018-07-05T02:17:09.477Z,8.87
2018-07-05T02:19:49.036Z,9.00
2018-07-05T02:22:28.720Z,9.43
2018-07-05T02:25:08.232Z,8.57
2018-07-05T02:27:47.994Z,9.00
2018-07-05T02:30:27.620Z,8.40
2018-07-05T02:33:07.522Z,8.63
2018-07-05T02:35:47.245Z,9.20
2018-07-05T02:38:26.948Z,7.47
2018-07-05T02:41:06.579Z,8.57
2018-07-05T02:43:46.200Z,9.30
2018-07-05T02:46:25.877Z,8.60
2018-07-05T02:49:05.693Z,8.80
2018-07-05T02:51:45.396Z,7.90
2018-07-05T02:54:25.121Z,9.00
2018-07-05T02:57:04.750Z,9.50
2018-07-05T02:59:44.300Z,9.60
2018-07-05T03:02:23.932Z,9.30
2018-07-05T03:05:03.648Z,9.60
2018-07-05T03:07:43.509Z,8.27
2018-07-05T03:10:23.304Z,9.10
2018-07-05T03:13:02.997Z,9.80
2018-07-05T03:15:42.732Z,9.13
2018-07-05T03:18:22.293Z,9.57
2018-07-05T03:21:02.009Z,9.97
2018-07-05T03:23:41.736Z,9.93
2018-07-05T03:26:21.405Z,9.87
2018-07-05T03:29:01.141Z,9.37
2018-07-05T03:31:40.720Z,9.27
2018-07-05T03:34:20.325Z,9.27
2018-07-05T03:37:00.039Z,8.80
2018-07-05T03:39:39.575Z,9.30
2018-07-05T03:42:19.440Z,9.10
2018-07-05T03:44:59.008Z,9.17
2018-07-05T03:47:38.802Z,9.10
2018-07-05T03:50:18.281Z,8.73
2018-07-05T03:52:57.994Z,8.53
2018-07-05T03:55:37.684Z,9.17
2018-07-05T03:58:17.420Z,7.90
2018-07-05T04:00:57.073Z,8.27
2018-07-05T04:03:36.700Z,8.70
2018-07-05T04:06:16.385Z,7.10
2018-07-05T04:08:55.961Z,8.73
2018-07-05T04:11:35.692Z,7.90
2018-07-05T04:14:15.421Z,9.00
2018-07-05T04:16:55.030Z,8.00
2018-07-05T04:19:39.270Z,7.70
2018-07-05T04:22:18.976Z,8.00
2018-07-05T04:24:58.677Z,7.70
2018-07-05T04:27:38.493Z,6.80
2018-07-05T04:30:18.144Z,7.30
2018-07-05T04:32:57.856Z,8.00
2018-07-05T04:35:37.495Z,7.70
2018-07-05T04:38:17.176Z,6.30
2018-07-05T04:40:56.993Z,7.00
2018-07-05T04:43:36.705Z,5.87
2018-07-05T04:46:16.229Z,7.10
2018-07-05T04:48:55.994Z,7.00
2018-07-05T04:51:36.038Z,5.47
2018-07-05T04:54:15.650Z,7.00
2018-07-05T04:56:55.140Z,6.27
2018-07-05T04:59:34.953Z,7.17
2018-07-05T05:02:14.676Z,5.67
2018-07-05T05:04:54.331Z,6.20
2018-07-05T05:07:33.984Z,6.67
2018-07-05T05:10:13.757Z,5.70
2018-07-05T05:12:53.324Z,6.10
2018-07-05T05:15:32.998Z,6.47
2018-07-05T05:18:12.555Z,6.77
2018-07-05T05:20:52.205Z,6.07
2018-07-05T05:23:31.945Z,5.70
2018-07-05T05:26:11.583Z,6.47
2018-07-05T05:28:51.378Z,6.20
2018-07-05T05:31:31.136Z,6.23
2018-07-05T05:34:04.753Z,6.93
2018-07-05T05:36:44.549Z,5.77
2018-07-05T05:39:24.146Z,6.30
2018-07-05T05:42:04.043Z,5.00
2018-07-05T05:44:43.997Z,5.67
2018-07-05T05:47:23.668Z,5.47
2018-07-05T05:50:03.270Z,5.00
2018-07-05T05:52:42.966Z,4.97
2018-07-05T05:55:22.608Z,5.40
2018-07-05T05:58:02.202Z,4.03
2018-07-05T06:00:41.940Z,4.67
2018-07-05T06:03:21.763Z,5.27
2018-07-05T06:06:01.212Z,4.50
2018-07-05T06:08:41.017Z,4.73
2018-07-05T06:11:20.683Z,4.90
2018-07-05T06:14:00.661Z,4.57
2018-07-05T06:16:40.222Z,4.93
2018-07-05T06:19:19.863Z,4.77
2018-07-05T06:21:59.453Z,4.50
2018-07-05T06:24:39.053Z,4.90
2018-07-05T06:27:18.673Z,5.10
2018-07-05T06:29:58.528Z,5.53
2018-07-05T06:32:38.115Z,6.13
2018-07-05T06:35:17.813Z,6.77
2018-07-05T06:37:57.688Z,6.10
2018-07-05T06:40:37.501Z,5.40
2018-07-05T06:43:17.157Z,6.77
2018-07-05T06:45:56.830Z,6.73
2018-07-05T06:48:36.565Z,6.83
2018-07-05T06:51:16.373Z,6.73
2018-07-05T06:53:56.208Z,10.07
2018-07-05T06:56:35.959Z,8.00
2018-07-05T06:59:16.439Z,8.30
2018-07-05T07:01:56.024Z,8.77
2018-07-05T07:04:35.685Z,8.67
2018-07-05T07:07:15.344Z,7.93
2018-07-05T07:09:54.949Z,11.03
2018-07-05T07:12:34.849Z,10.00
2018-07-05T07:15:14.981Z,11.23
2018-07-05T07:17:54.784Z,13.13
2018-07-05T07:20:34.641Z,13.60
2018-07-05T07:23:14.336Z,13.77
2018-07-05T07:25:54.196Z,14.97
2018-07-05T07:28:33.806Z,15.63
2018-07-05T07:31:13.687Z,14.43
2018-07-05T07:33:53.405Z,13.30
2018-07-05T07:36:32.994Z,12.93
2018-07-05T07:39:12.560Z,12.23
2018-07-05T07:41:47.168Z,11.50
2018-07-05T07:44:15.113Z,11.87
2018-07-05T07:46:42.421Z,14.37
2018-07-05T07:49:09.732Z,15.70
2018-07-05T07:51:37.195Z,14.27
2018-07-05T07:54:04.488Z,13.90
2018-07-05T07:56:31.830Z,15.10
2018-07-05T07:58:59.199Z,14.80
2018-07-05T08:01:26.553Z,16.40
2018-07-05T08:03:53.871Z,17.97
2018-07-05T08:06:21.206Z,18.10
2018-07-05T08:08:48.509Z,16.77
2018-07-05T08:11:15.869Z,17.83
2018-07-05T08:13:43.172Z,19.23
2018-07-05T08:16:10.518Z,18.70
2018-07-05T08:18:37.825Z,17.13
2018-07-05T08:21:05.163Z,16.07
2018-07-05T08:23:32.465Z,18.13
2018-07-05T08:25:59.802Z,15.97
2018-07-05T08:28:27.114Z,17.10
2018-07-05T08:30:54.468Z,18.40
2018-07-05T08:33:21.781Z,17.23
2018-07-05T08:35:49.111Z,18.57
2018-07-05T08:38:16.405Z,18.30
2018-07-05T08:40:43.761Z,18.10
2018-07-05T08:43:11.058Z,17.30
2018-07-05T08:45:38.354Z,18.13
2018-07-05T08:48:05.696Z,18.90
2018-07-05T08:50:33.005Z,17.77
2018-07-05T08:53:00.361Z,19.40
2018-07-05T08:55:27.669Z,16.63
2018-07-05T08:57:55.021Z,17.87
2018-07-05T09:00:22.336Z,18.37
2018-07-05T09:02:49.699Z,17.40
2018-07-05T09:05:17.075Z,17.63
2018-07-05T09:07:44.394Z,16.53
2018-07-05T09:10:11.707Z,17.33
2018-07-05T09:12:39.400Z,17.70
2018-07-05T09:15:06.730Z,19.03
2018-07-05T09:17:34.135Z,21.10
2018-07-05T09:20:01.382Z,20.27
2018-07-05T09:22:28.733Z,19.53
2018-07-05T09:24:56.041Z,18.20
2018-07-05T09:27:23.439Z,19.03
2018-07-05T09:29:50.744Z,20.37
2018-07-05T09:32:18.065Z,21.20
2018-07-05T09:34:45.399Z,21.80
2018-07-05T09:37:12.793Z,22.40
2018-07-05T09:39:40.064Z,22.33
2018-07-05T09:42:07.365Z,19.10
2018-07-05T09:44:34.739Z,18.57
2018-07-05T09:47:02.113Z,19.77
2018-07-05T09:49:29.432Z,18.90
2018-07-05T09:51:56.736Z,19.77
2018-07-05T09:54:24.076Z,20.00
2018-07-05T09:56:51.519Z,20.53
2018-07-05T09:59:18.872Z,18.80
2018-07-05T10:01:46.233Z,18.60
2018-07-05T10:04:13.582Z,18.70
2018-07-05T10:06:40.905Z,19.03
2018-07-05T10:09:08.258Z,20.10
2018-07-05T10:11:35.601Z,18.50
2018-07-05T10:14:02.933Z,18.30
2018-07-05T10:16:30.247Z,18.97
2018-07-05T10:18:57.636Z,19.60
2018-07-05T10:21:24.957Z,18.87
2018-07-05T10:23:52.332Z,19.10
2018-07-05T10:26:19.666Z,20.40
2018-07-05T10:28:59.505Z,20.47
2018-07-05T10:31:39.526Z,18.37
2018-07-05T10:34:06.866Z,18.27
2018-07-05T10:36:34.177Z,19.27
2018-07-05T10:39:01.514Z,18.60
2018-07-05T10:41:41.213Z,18.30
2018-07-05T10:44:20.935Z,20.53
2018-07-05T10:47:00.597Z,20.07
2018-07-05T10:49:40.337Z,17.47
2018-07-05T10:52:19.960Z,20.50
2018-07-05T10:54:59.553Z,19.77
2018-07-05T10:57:39.306Z,17.00
2018-07-05T11:00:18.896Z,17.37
2018-07-05T11:02:58.524Z,18.70
2018-07-05T11:05:38.253Z,20.30
2018-07-05T11:08:17.820Z,18.97
2018-07-05T11:10:57.544Z,19.57
2018-07-05T11:13:37.748Z,20.53
2018-07-05T11:16:17.810Z,17.20
2018-07-05T11:18:57.535Z,20.50
2018-07-05T11:21:37.044Z,16.93
2018-07-05T11:24:16.737Z,23.13
2018-07-05T11:26:56.327Z,21.20
2018-07-05T11:29:36.102Z,23.87
2018-07-05T11:32:15.637Z,21.57
2018-07-05T11:34:55.290Z,21.80
2018-07-05T11:37:34.905Z,20.80
2018-07-05T11:40:14.605Z,21.77
2018-07-05T11:42:54.217Z,20.20
2018-07-05T11:45:33.906Z,22.53
2018-07-05T11:48:13.461Z,22.23
2018-07-05T11:50:47.169Z,25.90
2018-07-05T11:53:26.965Z,24.23
2018-07-05T11:56:06.605Z,26.90
2018-07-05T11:58:46.287Z,23.33
2018-07-05T12:01:26.035Z,21.17
2018-07-05T12:04:05.723Z,21.60
2018-07-05T12:06:45.454Z,25.33
2018-07-05T12:09:25.104Z,22.87
2018-07-05T12:12:04.837Z,23.07
2018-07-05T12:14:44.680Z,23.20
2018-07-05T12:17:24.297Z,20.63
2018-07-05T12:20:03.845Z,21.37
2018-07-05T12:22:43.597Z,21.73
2018-07-05T12:25:23.253Z,22.57
2018-07-05T12:28:02.905Z,21.80
2018-07-05T12:30:42.733Z,21.63
2018-07-05T12:33:22.360Z,21.27
2018-07-05T12:36:02.088Z,19.77
2018-07-05T12:38:41.729Z,19.00
2018-07-05T12:41:21.428Z,17.37
2018-07-05T12:44:01.027Z,15.60
2018-07-05T12:46:40.687Z,15.60
2018-07-05T12:49:20.373Z,12.10
2018-07-05T12:52:00.013Z,12.70
2018-07-05T12:54:39.805Z,13.50
2018-07-05T12:57:19.493Z,11.90
2018-07-05T12:59:59.059Z,12.73
2018-07-05T13:02:38.792Z,12.53
2018-07-05T13:05:18.623Z,13.30
2018-07-05T13:07:58.160Z,11.33
2018-07-05T13:10:37.920Z,12.50
2018-07-05T13:13:17.738Z,15.00
2018-07-05T13:15:57.389Z,15.10
2018-07-05T13:18:37.124Z,11.67
2018-07-05T13:21:16.842Z,11.83
2018-07-05T13:23:56.513Z,12.40
2018-07-05T13:26:36.268Z,12.70
2018-07-05T13:29:15.647Z,11.23
2018-07-05T13:31:55.251Z,10.37
2018-07-05T13:34:35.120Z,9.33
2018-07-05T13:37:14.693Z,10.13
2018-07-05T13:39:54.303Z,9.27
2018-07-05T13:42:34.025Z,8.37
2018-07-05T13:45:13.584Z,9.03
2018-07-05T13:47:53.205Z,8.30
2018-07-05T13:50:32.869Z,8.47
2018-07-05T13:53:12.605Z,8.33
2018-07-05T13:55:52.314Z,8.43
2018-07-05T13:58:31.837Z,7.60
2018-07-05T14:01:11.402Z,7.70
2018-07-05T14:03:51.122Z,6.97
2018-07-05T14:06:31.001Z,7.20
2018-07-05T14:09:10.941Z,7.07
2018-07-05T14:11:50.560Z,7.77
2018-07-05T14:14:24.348Z,5.73
2018-07-05T14:17:04.112Z,5.40
2018-07-05T14:19:43.593Z,5.90
2018-07-05T14:22:23.203Z,5.77
2018-07-05T14:25:02.853Z,6.20
2018-07-05T14:27:42.522Z,6.10
2018-07-05T14:30:22.189Z,5.50
2018-07-05T14:33:01.994Z,6.10
2018-07-05T14:35:41.601Z,8.43
2018-07-05T14:38:21.194Z,8.13
2018-07-05T14:41:00.777Z,6.97
2018-07-05T14:43:40.708Z,5.07
2018-07-05T14:46:20.492Z,5.43
2018-07-05T14:49:00.369Z,5.70
2018-07-05T14:51:39.980Z,5.43
2018-07-05T14:54:19.453Z,5.90
2018-07-05T14:56:59.144Z,6.37
2018-07-05T14:59:38.632Z,6.87
2018-07-05T15:02:18.181Z,6.90
2018-07-05T15:04:57.745Z,6.27
2018-07-05T15:07:37.394Z,8.07
2018-07-05T15:10:17.129Z,7.83
2018-07-05T15:12:56.834Z,8.00
2018-07-05T15:15:36.589Z,9.23
2018-07-05T15:18:16.297Z,8.13
2018-07-05T15:20:55.833Z,8.30
2018-07-05T15:23:35.622Z,8.40
2018-07-05T15:26:15.418Z,7.60
2018-07-05T15:28:55.237Z,8.27
2018-07-05T15:31:34.696Z,6.87
2018-07-05T15:34:14.224Z,7.40
2018-07-05T15:36:53.853Z,8.40
2018-07-05T15:39:33.503Z,7.90
2018-07-05T15:42:12.988Z,7.47
2018-07-05T15:44:52.794Z,7.23
2018-07-05T15:47:32.574Z,6.77
2018-07-05T15:50:12.269Z,6.83
2018-07-05T15:52:51.844Z,6.40
2018-07-05T15:55:31.445Z,6.20
2018-07-05T15:58:11.058Z,7.23
2018-07-05T16:00:50.913Z,7.40
2018-07-05T16:03:30.632Z,7.83
2018-07-05T16:06:10.217Z,6.67
2018-07-05T16:08:49.744Z,6.83
2018-07-05T16:11:29.346Z,5.70
2018-07-05T16:14:09.037Z,6.20
2018-07-05T16:16:48.720Z,6.90
2018-07-05T16:19:28.493Z,6.27
2018-07-05T16:22:08.081Z,6.53
2018-07-05T16:24:47.591Z,5.80
2018-07-05T16:27:27.382Z,6.07
2018-07-05T16:30:07.031Z,6.63
2018-07-05T16:32:46.613Z,6.97
2018-07-05T16:35:26.189Z,6.17
2018-07-05T16:38:05.969Z,6.10
2018-07-05T16:40:45.589Z,7.20
2018-07-05T16:43:25.385Z,6.70
2018-07-05T16:46:05.096Z,7.37
2018-07-05T16:48:44.753Z,6.80
2018-07-05T16:51:24.292Z,7.50
2018-07-05T16:54:04.021Z,8.27
2018-07-05T16:56:43.650Z,7.77
2018-07-05T16:59:23.296Z,9.00
2018-07-05T17:02:02.942Z,7.97
2018-07-05T17:04:42.782Z,8.83
2018-07-05T17:07:22.510Z,7.90
2018-07-05T17:10:02.056Z,7.67
2018-07-05T17:12:41.661Z,8.40
2018-07-05T17:15:21.469Z,7.63
2018-07-05T17:18:01.049Z,8.20
2018-07-05T17:20:40.897Z,7.43
2018-07-05T17:23:20.648Z,6.80
2018-07-05T17:26:00.354Z,7.23
2018-07-05T17:28:39.933Z,7.13
2018-07-05T17:31:19.661Z,8.03
2018-07-05T17:33:59.245Z,7.43
2018-07-05T17:36:38.980Z,7.47
2018-07-05T17:39:18.591Z,7.40
2018-07-05T17:41:58.315Z,7.37
2018-07-05T17:44:38.122Z,7.50
2018-07-05T17:47:18.081Z,7.10
2018-07-05T17:49:57.717Z,7.63
2018-07-05T17:52:37.329Z,7.20
2018-07-05T17:55:17.049Z,7.30
2018-07-05T17:57:56.707Z,7.30
2018-07-05T18:00:36.332Z,7.70
2018-07-05T18:03:16.029Z,7.20
2018-07-05T18:05:55.576Z,8.57
2018-07-05T18:08:35.297Z,8.63
2018-07-05T18:11:14.990Z,7.60
2018-07-05T18:13:54.918Z,8.70
2018-07-05T18:16:34.694Z,7.63
2018-07-05T18:19:14.882Z,6.73
2018-07-05T18:21:54.481Z,7.07
2018-07-05T18:24:34.111Z,6.80
2018-07-05T18:27:13.768Z,7.20
2018-07-05T18:29:53.445Z,7.47
2018-07-05T18:32:33.141Z,8.63
2018-07-05T18:35:13.044Z,8.57
2018-07-05T18:37:52.831Z,8.23
2018-07-05T18:40:32.468Z,7.40
2018-07-05T18:43:12.153Z,7.27
2018-07-05T18:45:51.927Z,7.50
2018-07-05T18:48:31.646Z,7.20
2018-07-05T18:51:11.312Z,7.77
2018-07-05T18:53:51.162Z,7.47
2018-07-05T18:56:30.766Z,7.63
2018-07-05T18:59:10.273Z,7.60
2018-07-05T19:01:50.078Z,7.93
2018-07-05T19:04:29.839Z,7.20
2018-07-05T19:07:09.528Z,8.90
2018-07-05T19:09:49.250Z,8.10
2018-07-05T19:12:28.930Z,7.73
2018-07-05T19:15:08.748Z,7.97
2018-07-05T19:17:48.587Z,8.20
2018-07-05T19:20:28.161Z,8.63
2018-07-05T19:23:07.763Z,7.73
2018-07-05T19:25:47.894Z,8.40
2018-07-05T19:28:27.713Z,8.17
2018-07-05T19:31:07.368Z,8.40
2018-07-05T19:33:46.993Z,9.77
2018-07-05T19:36:26.666Z,8.83
2018-07-05T19:39:07.737Z,8.37
2018-07-05T19:41:47.524Z,8.57
2018-07-05T19:44:27.214Z,9.73
2018-07-05T19:47:07.219Z,8.53
2018-07-05T19:49:41.290Z,9.00
2018-07-05T19:52:20.890Z,8.50
2018-07-05T19:55:00.830Z,8.90
2018-07-05T19:57:40.539Z,8.70
2018-07-05T20:00:20.386Z,8.50
2018-07-05T20:02:59.994Z,8.50
2018-07-05T20:05:39.702Z,7.97
2018-07-05T20:08:19.398Z,9.13
2018-07-05T20:11:00.597Z,8.27
2018-07-05T20:13:41.467Z,8.37
2018-07-05T20:16:21.428Z,8.90
2018-07-05T20:19:01.158Z,8.83
2018-07-05T20:21:40.877Z,9.80
2018-07-05T20:24:20.626Z,9.00
2018-07-05T20:27:00.321Z,11.03
2018-07-05T20:29:40.100Z,9.77
2018-07-05T20:32:19.818Z,10.00
2018-07-05T20:34:59.462Z,10.20
2018-07-05T20:37:39.121Z,11.07
2018-07-05T20:40:18.674Z,11.10
2018-07-05T20:42:59.864Z,10.73
2018-07-05T20:45:33.533Z,9.90
2018-07-05T20:48:13.665Z,10.90
2018-07-05T20:50:53.256Z,10.23
2018-07-05T20:53:32.880Z,10.30
2018-07-05T20:56:12.601Z,9.87
2018-07-05T20:58:52.227Z,9.97
2018-07-05T21:01:31.879Z,9.80
2018-07-05T21:04:11.609Z,10.33
2018-07-05T21:06:51.152Z,10.77
2018-07-05T21:09:31.379Z,10.90
2018-07-05T21:12:10.945Z,9.80
2018-07-05T21:14:50.660Z,8.30
2018-07-05T21:17:30.483Z,9.90
2018-07-05T21:20:10.292Z,9.00
2018-07-05T21:22:49.897Z,9.20
2018-07-05T21:25:29.518Z,9.40
2018-07-05T21:28:09.052Z,10.00
2018-07-05T21:30:48.808Z,10.23
2018-07-05T21:33:28.512Z,9.60
2018-07-05T21:36:08.312Z,10.43
2018-07-05T21:38:48.152Z,10.37
2018-07-05T21:41:28.000Z,10.60
2018-07-05T21:44:07.686Z,9.60
2018-07-05T21:46:41.309Z,8.33
2018-07-05T21:49:20.979Z,7.30
2018-07-05T21:52:00.658Z,6.23
2018-07-05T21:54:40.297Z,5.77
2018-07-05T21:57:19.909Z,5.10
2018-07-05T21:59:59.631Z,4.67
2018-07-05T22:02:39.286Z,3.60
2018-07-05T22:05:18.911Z,3.53
2018-07-05T22:07:58.624Z,3.30
2018-07-05T22:10:38.277Z,2.87
2018-07-05T22:13:17.994Z,2.00
2018-07-05T22:15:57.617Z,2.47
2018-07-05T22:18:42.802Z,2.67
2018-07-05T22:21:22.487Z,1.80
2018-07-05T22:24:07.436Z,2.50
2018-07-05T22:26:48.017Z,2.30
2018-07-05T22:29:33.232Z,2.37
2018-07-05T22:32:12.981Z,2.00
2018-07-05T22:34:52.881Z,2.00
2018-07-05T22:37:32.498Z,1.50
2018-07-05T22:40:12.101Z,2.20
2018-07-05T22:42:51.869Z,1.63
2018-07-05T22:45:31.466Z,1.97
2018-07-05T22:48:11.046Z,2.13
2018-07-05T22:50:50.889Z,2.40
2018-07-05T22:53:30.614Z,1.47
2018-07-05T22:56:10.237Z,1.40
2018-07-05T22:58:49.960Z,1.70
2018-07-05T23:01:29.642Z,1.60
2018-07-05T23:04:09.175Z,1.70
2018-07-05T23:06:48.853Z,1.50
2018-07-05T23:09:28.489Z,1.70
2018-07-05T23:12:08.250Z,1.50
2018-07-05T23:14:47.841Z,2.30
2018-07-05T23:17:27.620Z,1.70
2018-07-05T23:20:07.469Z,1.53
2018-07-05T23:22:47.111Z,1.90
2018-07-05T23:25:26.713Z,1.70
2018-07-05T23:28:06.488Z,1.70
2018-07-05T23:30:46.137Z,2.43
2018-07-05T23:33:25.845Z,1.83
2018-07-05T23:36:05.564Z,1.53
2018-07-05T23:38:45.186Z,1.33
2018-07-05T23:41:24.905Z,1.90
2018-07-05T23:44:04.652Z,1.37
2018-07-05T23:46:44.293Z,1.80
2018-07-05T23:49:24.023Z,1.50
2018-07-05T23:52:03.769Z,2.40
2018-07-05T23:54:43.413Z,1.63
2018-07-05T23:57:23.132Z,2.00
